Time;durP1;ratioP1;P1;durP2;ratioP2;P2;SDS_P1;SDS_P2;PMS_P1;PMS_P2;Temp;Humidity;BMP_temperature;BMP_pressure;BME280_temperature;BME280_humidity;BME280_pressure;Samples;Min_cycle;Max_cycle;Signal;HPM_P1;HPM_P2
2021/06/03 00:00:54;;;;;;;;;;;;;;;21.17;37.77;100814.88;5351639;26;33096;-89
2021/06/03 00:03:22;;;;;;;;;;;;;;;20.85;38.33;100823.72;5334510;26;33025;-88
2021/06/03 00:05:51;;;;;;;;;;;;;;;20.76;38.80;100823.41;5351888;26;33319;-89
2021/06/03 00:08:21;;;;;;;;;;;;;;;20.99;38.36;100827.37;5335319;26;32727;-91
2021/06/03 00:11:00;;;;;;;;;;;;;;;21.25;37.93;100823.22;5335013;26;34376;-89
2021/06/03 00:13:29;;;;;;;;;;;;;;;20.82;38.98;100828.34;5352796;26;32956;-89
2021/06/03 00:16:00;;;;;;;;;;;;;;;20.73;39.20;100827.09;5334852;26;32963;-90
2021/06/03 00:18:28;;;;;;;;;;;;;;;20.32;40.28;100825.75;5351936;26;34049;-90
2021/06/03 00:20:57;;;;;;;;;;;;;;;20.04;41.26;100821.09;5351394;26;33189;-89
2021/06/03 00:23:25;;;;;;;;;;;;;;;20.43;40.55;100833.09;5331298;26;34335;-89
2021/06/03 00:25:53;;;;;;;;;;;;;;;19.75;42.28;100831.38;5330749;26;32253;-88
2021/06/03 00:28:30;;;;;;;;;;;;;;;20.43;40.76;100833.09;5334162;26;32593;-89
2021/06/03 00:31:05;;;;;;;;;;;;;;;20.21;40.99;100835.19;5318427;26;33216;-90
2021/06/03 00:33:33;;;;;;;;;;;;;;;20.14;40.66;100835.56;5353327;26;33696;-89
2021/06/03 00:36:05;;;;;;;;;;;;;;;20.23;40.37;100836.84;5336034;26;31973;-90
2021/06/03 00:38:33;;;;;;;;;;;;;;;19.96;40.76;100842.66;5333817;26;33575;-90
2021/06/03 00:41:00;;;;;;;;;;;;;;;20.26;40.16;100838.47;5334674;26;33271;-90
2021/06/03 00:43:29;;;;;;;;;;;;;;;20.30;39.98;100832.94;5315753;26;32688;-91
2021/06/03 00:45:58;;;;;;;;;;;;;;;21.08;38.31;100839.25;5352852;26;33167;-89
2021/06/03 00:48:26;;;;;;;;;;;;;;;20.71;39.00;100836.06;5334739;26;33047;-91
2021/06/03 00:50:56;;;;;;;;;;;;;;;20.25;39.90;100837.63;5355132;26;34084;-91
2021/06/03 00:53:24;;;;;;;;;;;;;;;20.81;38.47;100840.75;5356875;26;34274;-90
2021/06/03 00:55:53;;;;;;;;;;;;;;;20.89;38.17;100844.72;5338439;26;32189;-89
2021/06/03 00:58:21;;;;;;;;;;;;;;;20.74;38.48;100846.47;5339444;26;33195;-90
2021/06/03 01:00:49;;;;;;;;;;;;;;;20.95;38.09;100847.03;5338767;26;33001;-90
2021/06/03 01:03:18;;;;;;;;;;;;;;;20.19;39.75;100841.41;5317983;26;33380;-89
2021/06/03 01:05:51;;;;;;;;;;;;;;;20.29;39.58;100855.03;5374235;26;33972;-90
2021/06/03 01:08:21;;;;;;;;;;;;;;;20.60;39.00;100849.84;5355685;26;33282;-90
2021/06/03 01:10:56;;;;;;;;;;;;;;;20.46;39.45;100856.78;5317672;26;33141;-90
2021/06/03 01:13:46;;;;;;;;;;;;;;;19.87;40.64;100848.44;5371033;26;33718;-89
2021/06/03 01:16:23;;;;;;;;;;;;;;;19.84;40.96;100852.09;5353846;26;32001;-90
2021/06/03 01:18:53;;;;;;;;;;;;;;;20.12;40.47;100847.16;5352867;26;33180;-90
2021/06/03 01:21:24;;;;;;;;;;;;;;;20.20;40.11;100850.22;5334707;26;33067;-89
2021/06/03 01:24:11;;;;;;;;;;;;;;;19.97;40.66;100852.31;5334107;26;33111;-90
2021/06/03 01:26:40;;;;;;;;;;;;;;;20.00;40.57;100854.78;5352674;26;32131;-90
2021/06/03 01:29:08;;;;;;;;;;;;;;;20.07;40.43;100855.31;5351914;26;33005;-90
2021/06/03 01:31:44;;;;;;;;;;;;;;;20.13;40.27;100857.66;5336496;26;33217;-91
2021/06/03 01:34:15;;;;;;;;;;;;;;;20.46;39.59;100862.06;5334037;26;32555;-89
2021/06/03 01:36:43;;;;;;;;;;;;;;;20.22;40.05;100866.03;5315284;26;32459;-89
2021/06/03 01:39:11;;;;;;;;;;;;;;;20.06;40.41;100864.19;5333624;26;32982;-89
2021/06/03 01:41:39;;;;;;;;;;;;;;;20.36;39.77;100860.84;5352089;26;34027;-91
2021/06/03 01:44:11;;;;;;;;;;;;;;;20.03;40.39;100859.91;5334949;26;33308;-90
2021/06/03 01:46:39;;;;;;;;;;;;;;;19.89;40.64;100859.81;5333804;26;33005;-90
2021/06/03 01:49:07;;;;;;;;;;;;;;;19.97;40.44;100862.91;5334882;26;33810;-90
2021/06/03 01:51:36;;;;;;;;;;;;;;;20.53;39.30;100860.78;5335589;26;33121;-90
2021/06/03 01:54:05;;;;;;;;;;;;;;;20.67;38.83;100872.41;5335708;26;32927;-90
2021/06/03 01:56:35;;;;;;;;;;;;;;;20.58;38.75;100860.53;5354705;26;33220;-90
2021/06/03 01:59:04;;;;;;;;;;;;;;;20.58;38.66;100862.31;5336031;26;33021;-89
2021/06/03 02:01:32;;;;;;;;;;;;;;;20.47;38.82;100865.56;5335950;26;33350;-90
2021/06/03 02:04:01;;;;;;;;;;;;;;;20.05;39.68;100864.28;5335488;26;32905;-90
2021/06/03 02:06:28;;;;;;;;;;;;;;;19.93;39.93;100869.28;5353293;26;34071;-90
2021/06/03 02:08:56;;;;;;;;;;;;;;;20.13;39.72;100865.59;5316902;26;32788;-89
2021/06/03 02:11:26;;;;;;;;;;;;;;;20.36;38.81;100869.62;5335578;26;34411;-91
2021/06/03 02:13:55;;;;;;;;;;;;;;;19.72;40.20;100876.50;5316709;26;33062;-90
2021/06/03 02:16:30;;;;;;;;;;;;;;;20.00;39.63;100867.16;5317153;26;32975;-89
2021/06/03 02:19:02;;;;;;;;;;;;;;;20.09;39.58;100868.47;5335917;26;32888;-90
2021/06/03 02:21:33;;;;;;;;;;;;;;;20.33;38.94;100872.44;5354095;26;34856;-90
2021/06/03 02:24:01;;;;;;;;;;;;;;;19.92;39.85;100869.38;5315945;26;32586;-89
2021/06/03 02:26:33;;;;;;;;;;;;;;;20.18;39.35;100875.91;5335335;26;31774;-89
2021/06/03 02:29:02;;;;;;;;;;;;;;;20.67;38.33;100877.69;5335412;26;32458;-90
2021/06/03 02:31:31;;;;;;;;;;;;;;;20.64;38.25;100876.06;5334885;26;33302;-89
2021/06/03 02:34:00;;;;;;;;;;;;;;;20.47;38.66;100873.50;5335273;26;33373;-90
2021/06/03 02:36:28;;;;;;;;;;;;;;;20.67;38.21;100878.56;5316645;26;32921;-89
2021/06/03 02:38:57;;;;;;;;;;;;;;;20.49;38.47;100866.34;5334664;26;32939;-91
2021/06/03 02:41:25;;;;;;;;;;;;;;;20.09;39.44;100868.47;5334968;26;33955;-90
2021/06/03 02:43:54;;;;;;;;;;;;;;;20.15;39.39;100868.16;5316250;26;33069;-90
2021/06/03 02:46:22;;;;;;;;;;;;;;;19.48;40.98;100879.44;5353444;26;33130;-90
2021/06/03 02:48:51;;;;;;;;;;;;;;;20.38;38.97;100880.13;5316581;26;32834;-90
2021/06/03 02:51:20;;;;;;;;;;;;;;;19.72;40.12;100879.16;5335054;26;33125;-92
2021/06/03 02:53:48;;;;;;;;;;;;;;;19.40;41.08;100886.91;5334732;26;33071;-90
2021/06/03 02:56:18;;;;;;;;;;;;;;;20.13;39.65;100884.09;5335930;26;32957;-90
2021/06/03 02:58:47;;;;;;;;;;;;;;;20.33;39.11;100888.31;5317650;26;33018;-90
2021/06/03 03:01:16;;;;;;;;;;;;;;;20.10;39.63;100891.34;5335063;26;32825;-90
2021/06/03 03:03:46;;;;;;;;;;;;;;;20.09;39.81;100887.84;5335751;26;33967;-90
2021/06/03 03:06:14;;;;;;;;;;;;;;;20.23;39.67;100892.41;5334450;26;32150;-90
2021/06/03 03:08:42;;;;;;;;;;;;;;;19.91;40.33;100899.38;5334963;26;32850;-89
2021/06/03 03:11:11;;;;;;;;;;;;;;;20.06;40.00;100900.38;5335274;26;32959;-89
2021/06/03 03:13:39;;;;;;;;;;;;;;;20.48;39.14;100902.53;5334842;26;32940;-89
2021/06/03 03:16:07;;;;;;;;;;;;;;;20.03;40.31;100898.75;5371987;26;33224;-89
2021/06/03 03:18:37;;;;;;;;;;;;;;;20.47;39.37;100902.59;5336077;26;33828;-89
2021/06/03 03:21:05;;;;;;;;;;;;;;;20.86;38.57;100898.75;5354982;26;34132;-90
2021/06/03 03:23:32;;;;;;;;;;;;;;;20.36;39.49;100901.37;5317816;26;32881;-89
2021/06/03 03:26:02;;;;;;;;;;;;;;;19.91;40.61;100908.16;5337616;26;32162;-89
2021/06/03 03:28:30;;;;;;;;;;;;;;;20.28;39.72;100908.88;5356473;26;35092;-89
2021/06/03 03:30:59;;;;;;;;;;;;;;;20.45;39.47;100905.34;5340003;26;32912;-89
2021/06/03 03:33:29;;;;;;;;;;;;;;;20.34;39.68;100915.63;5362683;26;34333;-90
2021/06/03 03:35:57;;;;;;;;;;;;;;;20.32;39.91;100915.72;5359214;26;32959;-90
2021/06/03 03:38:27;;;;;;;;;;;;;;;20.96;38.52;100914.97;5340016;26;33624;-89
2021/06/03 03:40:56;;;;;;;;;;;;;;;20.21;39.98;100915.44;5340338;26;33468;-89
2021/06/03 03:43:24;;;;;;;;;;;;;;;20.33;40.02;100917.44;5316955;26;33147;-89
2021/06/03 03:45:55;;;;;;;;;;;;;;;20.73;39.12;100924.19;5317150;26;32538;-90
2021/06/03 03:48:26;;;;;;;;;;;;;;;20.64;39.27;100917.59;5334585;26;34044;-89
2021/06/03 03:50:54;;;;;;;;;;;;;;;20.96;38.71;100912.34;5370533;26;33364;-90
2021/06/03 03:53:24;;;;;;;;;;;;;;;20.39;40.05;100924.19;5333759;26;34061;-90
2021/06/03 03:55:52;;;;;;;;;;;;;;;20.87;39.05;100918.16;5351818;26;32502;-90
2021/06/03 03:58:20;;;;;;;;;;;;;;;20.94;38.99;100927.44;5332931;26;33876;-90
2021/06/03 04:00:48;;;;;;;;;;;;;;;21.36;38.14;100929.47;5333039;26;33096;-91
2021/06/03 04:03:16;;;;;;;;;;;;;;;20.89;39.03;100922.41;5332776;26;33421;-90
2021/06/03 04:05:44;;;;;;;;;;;;;;;20.93;39.01;100929.25;5332628;26;32393;-89
2021/06/03 04:08:13;;;;;;;;;;;;;;;20.78;39.49;100928.31;5332709;26;32636;-89
2021/06/03 04:10:41;;;;;;;;;;;;;;;21.26;38.55;100925.66;5352041;26;34169;-91
2021/06/03 04:13:11;;;;;;;;;;;;;;;21.32;38.44;100924.44;5335721;26;32992;-88
2021/06/03 04:15:40;;;;;;;;;;;;;;;21.31;38.45;100926.25;5335469;26;32481;-90
2021/06/03 04:18:12;;;;;;;;;;;;;;;21.39;38.34;100927.59;5338068;26;35023;-90
2021/06/03 04:20:40;;;;;;;;;;;;;;;21.55;37.83;100933.72;5333358;26;32819;-90
2021/06/03 04:23:09;;;;;;;;;;;;;;;21.79;37.45;100933.25;5332674;26;32986;-89
2021/06/03 04:25:40;;;;;;;;;;;;;;;21.95;37.19;100928.75;5333371;26;32493;-90
2021/06/03 04:28:08;;;;;;;;;;;;;;;22.35;36.48;100929.00;5332271;26;34267;-89
2021/06/03 04:30:39;;;;;;;;;;;;;;;22.35;36.78;100923.69;5333118;26;34002;-89
2021/06/03 04:33:09;;;;;;;;;;;;;;;22.39;36.98;100926.16;5314274;26;33274;-89
2021/06/03 04:35:36;;;;;;;;;;;;;;;22.57;36.67;100925.00;5331488;26;32209;-89
2021/06/03 04:38:04;;;;;;;;;;;;;;;22.44;37.18;100932.03;5367425;26;34611;-89
2021/06/03 04:40:33;;;;;;;;;;;;;;;22.84;36.44;100932.19;5349512;26;34859;-88
2021/06/03 04:43:00;;;;;;;;;;;;;;;22.90;36.50;100934.44;5348685;26;32806;-87
2021/06/03 04:45:28;;;;;;;;;;;;;;;23.29;35.82;100932.00;5331398;26;32643;-88
2021/06/03 04:47:56;;;;;;;;;;;;;;;23.38;35.65;100935.88;5349028;26;34036;-88
2021/06/03 04:50:26;;;;;;;;;;;;;;;23.34;35.70;100932.56;5330892;26;33010;-88
2021/06/03 04:52:53;;;;;;;;;;;;;;;23.34;35.77;100930.75;5348756;26;34677;-89
2021/06/03 04:55:22;;;;;;;;;;;;;;;23.40;35.63;100932.16;5348510;26;33112;-88
2021/06/03 04:57:49;;;;;;;;;;;;;;;23.21;35.88;100924.53;5367119;26;33689;-89
2021/06/03 05:00:22;;;;;;;;;;;;;;;23.49;35.35;100925.37;5349017;26;33868;-89
2021/06/03 05:02:51;;;;;;;;;;;;;;;23.95;34.49;100926.78;5367431;26;34096;-88
2021/06/03 05:05:18;;;;;;;;;;;;;;;24.09;34.18;100931.13;5329592;26;32216;-88
2021/06/03 05:07:49;;;;;;;;;;;;;;;24.25;33.93;100937.12;5351554;26;32763;-88
2021/06/03 05:10:18;;;;;;;;;;;;;;;24.23;33.97;100933.69;5330941;26;32768;-91
2021/06/03 05:12:45;;;;;;;;;;;;;;;23.64;34.28;100936.78;5348589;26;34295;-88
2021/06/03 05:15:15;;;;;;;;;;;;;;;24.39;32.86;100932.63;5330278;26;32126;-89
2021/06/03 05:17:43;;;;;;;;;;;;;;;24.25;32.28;100931.78;5348720;26;34177;-91
2021/06/03 05:20:12;;;;;;;;;;;;;;;24.50;31.67;100925.59;5348473;26;33885;-88
2021/06/03 05:22:40;;;;;;;;;;;;;;;24.64;30.88;100932.59;5312079;26;32907;-89
2021/06/03 05:25:10;;;;;;;;;;;;;;;24.42;29.48;100921.75;5312516;26;33449;-90
2021/06/03 05:27:38;;;;;;;;;;;;;;;24.70;28.83;100930.47;5331013;26;34103;-91
2021/06/03 05:30:07;;;;;;;;;;;;;;;24.06;30.19;100932.19;5330740;26;33001;-90
2021/06/03 05:32:35;;;;;;;;;;;;;;;24.18;30.28;100926.03;5331005;26;34134;-87
2021/06/03 05:35:03;;;;;;;;;;;;;;;24.68;29.46;100934.09;5349335;26;32043;-88
2021/06/03 05:37:32;;;;;;;;;;;;;;;24.93;29.13;100940.34;5331692;26;33010;-88
2021/06/03 05:40:00;;;;;;;;;;;;;;;25.63;28.09;100940.56;5334310;26;34919;-90
2021/06/03 05:42:30;;;;;;;;;;;;;;;25.07;29.33;100938.47;5333520;26;32913;-90
2021/06/03 05:45:02;;;;;;;;;;;;;;;25.10;29.42;100933.78;5351375;26;32050;-90
2021/06/03 05:47:30;;;;;;;;;;;;;;;25.36;28.77;100932.84;5360879;26;33056;-93
2021/06/03 05:49:57;;;;;;;;;;;;;;;25.31;28.78;100933.97;5359704;26;33578;-93
2021/06/03 05:52:26;;;;;;;;;;;;;;;25.48;28.59;100932.75;5338734;26;33012;-93
2021/06/03 05:54:54;;;;;;;;;;;;;;;26.01;27.82;100939.47;5354167;26;32075;-92
2021/06/03 05:57:25;;;;;;;;;;;;;;;26.04;27.66;100941.09;5337268;26;33237;-93
2021/06/03 05:59:56;;;;;;;;;;;;;;;25.92;28.19;100945.50;5337656;26;33015;-91
2021/06/03 06:02:32;;;;;;;;;;;;;;;26.03;28.20;100948.22;5334079;26;33854;-92
2021/06/03 06:07:58;;;;;;;;;;;;;;;26.04;27.44;100946.44;5375191;26;34038;-94
2021/06/03 06:10:26;;;;;;;;;;;;;;;26.15;27.64;100951.78;5334148;26;33696;-92
2021/06/03 06:12:53;;;;;;;;;;;;;;;26.48;27.05;100958.94;5352851;26;34629;-92
2021/06/03 06:15:21;;;;;;;;;;;;;;;26.63;26.05;100954.22;5333185;26;32154;-92
2021/06/03 06:17:51;;;;;;;;;;;;;;;26.41;25.24;100962.25;5336645;26;32365;-93
2021/06/03 06:20:20;;;;;;;;;;;;;;;25.92;26.42;100961.53;5333757;26;33284;-92
2021/06/03 06:22:48;;;;;;;;;;;;;;;25.80;24.95;100966.81;5331811;26;32431;-92
2021/06/03 06:25:16;;;;;;;;;;;;;;;26.11;24.92;100961.00;5350138;26;34109;-94
2021/06/03 06:27:44;;;;;;;;;;;;;;;25.96;24.18;100968.34;5348919;26;32779;-90
2021/06/03 06:30:13;;;;;;;;;;;;;;;26.05;23.33;100965.00;5366671;26;34296;-90
2021/06/03 06:32:41;;;;;;;;;;;;;;;27.09;22.12;100968.41;5331016;26;34204;-90
2021/06/03 06:35:10;;;;;;;;;;;;;;;27.20;21.97;100966.69;5331339;26;33093;-88
2021/06/03 06:37:38;;;;;;;;;;;;;;;27.34;21.60;100967.25;5349208;26;33562;-89
2021/06/03 06:40:06;;;;;;;;;;;;;;;27.69;21.10;100965.31;5332171;26;32922;-89
2021/06/03 06:42:34;;;;;;;;;;;;;;;27.55;21.13;100960.25;5330852;26;33887;-88
2021/06/03 06:45:03;;;;;;;;;;;;;;;27.52;21.36;100965.87;5349332;26;32098;-88
2021/06/03 06:47:31;;;;;;;;;;;;;;;27.13;21.60;100967.19;5330639;26;32983;-89
2021/06/03 06:49:59;;;;;;;;;;;;;;;26.48;22.43;100971.47;5331253;26;33092;-89
2021/06/03 06:52:27;;;;;;;;;;;;;;;26.97;21.67;100974.75;5348796;26;34906;-89
2021/06/03 06:54:55;;;;;;;;;;;;;;;27.85;20.82;100972.91;5330557;26;33555;-90
2021/06/03 06:57:22;;;;;;;;;;;;;;;27.34;21.21;100977.09;5348448;26;33121;-90
2021/06/03 06:59:50;;;;;;;;;;;;;;;27.64;21.20;100971.06;5349221;26;34148;-89
2021/06/03 07:02:19;;;;;;;;;;;;;;;27.58;21.17;100971.56;5348909;26;33733;-89
2021/06/03 07:04:47;;;;;;;;;;;;;;;26.86;21.90;100967.62;5330972;26;33283;-89
2021/06/03 07:07:14;;;;;;;;;;;;;;;27.40;21.30;100970.41;5352022;26;33105;-92
2021/06/03 07:09:43;;;;;;;;;;;;;;;28.22;20.18;100972.47;5352838;26;33691;-90
2021/06/03 07:12:11;;;;;;;;;;;;;;;27.24;21.12;100976.16;5330504;26;32750;-88
2021/06/03 07:14:39;;;;;;;;;;;;;;;26.99;21.64;100981.69;5349135;26;32563;-87
2021/06/03 07:17:07;;;;;;;;;;;;;;;27.18;21.42;100977.53;5330399;26;32842;-87
2021/06/03 07:19:34;;;;;;;;;;;;;;;27.19;21.64;100979.22;5367805;26;34275;-87
2021/06/03 07:22:02;;;;;;;;;;;;;;;27.99;20.25;100972.56;5330364;26;32793;-87
2021/06/03 07:24:30;;;;;;;;;;;;;;;28.35;18.62;100974.94;5348913;26;33707;-88
2021/06/03 07:26:57;;;;;;;;;;;;;;;28.70;18.02;100976.37;5366832;26;35012;-89
2021/06/03 07:29:25;;;;;;;;;;;;;;;28.57;17.67;100981.94;5330295;26;34543;-87
2021/06/03 07:31:53;;;;;;;;;;;;;;;27.89;18.72;100981.53;5348329;26;32670;-88
2021/06/03 07:34:20;;;;;;;;;;;;;;;28.97;17.89;100978.44;5330146;26;33028;-89
2021/06/03 07:36:47;;;;;;;;;;;;;;;28.80;17.51;100977.25;5349897;26;33118;-88
2021/06/03 07:39:15;;;;;;;;;;;;;;;28.92;17.53;100985.19;5350122;26;32996;-90
2021/06/03 07:41:43;;;;;;;;;;;;;;;28.18;18.25;100989.78;5330271;26;32804;-92
2021/06/03 07:44:10;;;;;;;;;;;;;;;28.10;18.11;100989.59;5349139;26;33514;-86
2021/06/03 07:46:39;;;;;;;;;;;;;;;29.26;17.00;100983.03;5367037;26;33995;-89
2021/06/03 07:49:07;;;;;;;;;;;;;;;29.20;16.75;100980.88;5349316;26;34052;-87
2021/06/03 07:51:34;;;;;;;;;;;;;;;29.07;17.17;100980.31;5387435;26;33876;-87
2021/06/03 07:54:03;;;;;;;;;;;;;;;29.04;16.65;100986.78;5330735;26;32114;-86
2021/06/03 07:56:30;;;;;;;;;;;;;;;29.81;16.03;100984.34;5367308;26;35000;-87
2021/06/03 07:58:58;;;;;;;;;;;;;;;30.29;15.84;100980.72;5367436;26;33226;-86
2021/06/03 08:01:25;;;;;;;;;;;;;;;29.28;16.91;100988.28;5330164;26;33906;-87
2021/06/03 08:03:53;;;;;;;;;;;;;;;29.42;17.01;100987.00;5350895;26;33251;-87
2021/06/03 08:06:21;;;;;;;;;;;;;;;29.77;16.39;100993.63;5367470;26;33795;-88
2021/06/03 08:08:48;;;;;;;;;;;;;;;30.11;15.81;100988.66;5351041;26;33798;-88
2021/06/03 08:11:16;;;;;;;;;;;;;;;29.97;16.09;100989.97;5348746;26;34784;-90
2021/06/03 08:13:44;;;;;;;;;;;;;;;29.48;16.57;100983.78;5330217;26;32634;-90
2021/06/03 08:16:11;;;;;;;;;;;;;;;29.60;16.39;100985.31;5350224;26;33098;-86
2021/06/03 08:18:39;;;;;;;;;;;;;;;29.77;16.21;100982.87;5367289;26;34230;-86
2021/06/03 08:21:08;;;;;;;;;;;;;;;30.13;15.73;100985.87;5349044;26;33795;-86
2021/06/03 08:23:36;;;;;;;;;;;;;;;29.95;16.06;100991.94;5332947;26;31863;-87
2021/06/03 08:26:06;;;;;;;;;;;;;;;29.85;16.25;100991.09;5351266;26;32802;-87
2021/06/03 08:28:34;;;;;;;;;;;;;;;30.07;15.80;100987.25;5371242;26;34227;-87
2021/06/03 08:31:05;;;;;;;;;;;;;;;29.40;16.60;100994.38;5333047;26;33218;-87
2021/06/03 08:33:47;;;;;;;;;;;;;;;29.77;16.73;100997.19;5353910;26;33378;-89
2021/06/03 08:36:23;;;;;;;;;;;;;;;30.29;16.28;101001.38;5336888;26;32898;-89
2021/06/03 08:38:53;;;;;;;;;;;;;;;30.32;16.27;100984.94;5336658;26;33235;-89
2021/06/03 08:41:20;;;;;;;;;;;;;;;30.78;15.86;100987.75;5332451;26;33328;-90
2021/06/03 08:43:48;;;;;;;;;;;;;;;29.77;16.81;100988.25;5332221;26;32321;-88
2021/06/03 08:46:16;;;;;;;;;;;;;;;30.49;16.24;100983.38;5351134;26;34624;-88
2021/06/03 08:48:46;;;;;;;;;;;;;;;30.92;15.79;100981.03;5351382;26;34159;-87
2021/06/03 08:51:13;;;;;;;;;;;;;;;31.29;15.40;100990.88;5370519;26;34818;-88
2021/06/03 08:53:41;;;;;;;;;;;;;;;31.44;15.32;100988.50;5370688;26;32979;-88
2021/06/03 08:56:16;;;;;;;;;;;;;;;30.90;15.79;100983.88;5352139;26;33984;-88
2021/06/03 08:58:45;;;;;;;;;;;;;;;30.41;16.24;100973.31;5333857;26;33190;-89
2021/06/03 09:01:14;;;;;;;;;;;;;;;30.59;16.19;100981.47;5351144;26;33016;-88
2021/06/03 09:03:42;;;;;;;;;;;;;;;29.73;17.14;100978.81;5369954;26;33919;-88
2021/06/03 09:06:12;;;;;;;;;;;;;;;29.38;17.59;100980.22;5350761;26;32926;-87
2021/06/03 09:08:40;;;;;;;;;;;;;;;29.12;17.99;100970.84;5351530;26;33048;-88
2021/06/03 09:11:10;;;;;;;;;;;;;;;29.94;17.08;100979.53;5351490;26;33007;-89
2021/06/03 09:13:40;;;;;;;;;;;;;;;29.41;17.76;100978.12;5351605;26;33878;-89
2021/06/03 09:16:09;;;;;;;;;;;;;;;28.46;18.70;100974.81;5333704;26;33831;-88
2021/06/03 09:18:41;;;;;;;;;;;;;;;29.06;18.24;100965.19;5351165;26;32937;-92
2021/06/03 09:21:13;;;;;;;;;;;;;;;28.32;19.19;100967.12;5351826;26;34394;-91
2021/06/03 09:23:42;;;;;;;;;;;;;;;29.24;18.19;100968.87;5349937;26;32196;-87
2021/06/03 09:26:11;;;;;;;;;;;;;;;30.28;17.31;100965.56;5348496;26;32890;-91
2021/06/03 09:28:46;;;;;;;;;;;;;;;30.31;17.14;100967.12;5353040;26;33092;-88
2021/06/03 09:31:25;;;;;;;;;;;;;;;30.96;16.55;100964.44;5331822;26;33187;-89
2021/06/03 09:33:57;;;;;;;;;;;;;;;30.59;16.94;100968.03;5330564;26;32010;-88
2021/06/03 09:36:35;;;;;;;;;;;;;;;31.28;16.26;100971.19;5366687;26;35020;-90
2021/06/03 09:39:06;;;;;;;;;;;;;;;31.53;16.00;100963.34;5369183;26;34425;-89
2021/06/03 09:41:39;;;;;;;;;;;;;;;31.30;16.21;100968.38;5367734;26;33713;-89
2021/06/03 09:44:10;;;;;;;;;;;;;;;31.85;15.88;100969.19;5330068;26;31850;-89
2021/06/03 09:46:45;;;;;;;;;;;;;;;31.50;16.16;100966.34;5366216;26;33101;-88
2021/06/03 09:49:14;;;;;;;;;;;;;;;31.62;16.06;100961.59;5330440;26;33238;-92
2021/06/03 09:51:44;;;;;;;;;;;;;;;32.37;15.66;100955.72;5330688;26;32924;-90
2021/06/03 09:54:19;;;;;;;;;;;;;;;30.57;17.08;100958.44;5330878;26;32452;-90
2021/06/03 09:56:50;;;;;;;;;;;;;;;31.29;16.43;100959.41;5366527;26;33909;-90
2021/06/03 09:59:34;;;;;;;;;;;;;;;31.37;16.45;100955.97;5347999;26;35211;-90
2021/06/03 10:02:20;;;;;;;;;;;;;;;30.47;17.28;100956.63;5329640;26;33284;-89
2021/06/03 10:04:52;;;;;;;;;;;;;;;30.22;17.80;100955.44;5349183;26;34024;-90
2021/06/03 10:07:20;;;;;;;;;;;;;;;31.42;16.49;100955.53;5330288;26;33516;-90
2021/06/03 10:09:50;;;;;;;;;;;;;;;32.08;15.80;100950.62;5331456;26;33995;-93
2021/06/03 10:12:27;;;;;;;;;;;;;;;31.51;16.29;100951.03;5335947;26;33832;-90
2021/06/03 10:14:57;;;;;;;;;;;;;;;30.87;16.84;100951.03;5368582;26;33399;-92
2021/06/03 10:17:29;;;;;;;;;;;;;;;30.73;17.20;100936.28;5349532;26;34013;-89
2021/06/03 10:20:01;;;;;;;;;;;;;;;31.22;16.64;100938.66;5367316;26;34784;-89
2021/06/03 10:22:30;;;;;;;;;;;;;;;31.42;16.46;100931.28;5349500;26;33178;-89
2021/06/03 10:25:00;;;;;;;;;;;;;;;31.73;16.23;100931.72;5350063;26;33227;-92
2021/06/03 10:27:28;;;;;;;;;;;;;;;30.85;17.14;100931.50;5330357;26;33004;-89
2021/06/03 10:29:56;;;;;;;;;;;;;;;31.60;16.63;100932.09;5330806;26;32925;-90
2021/06/03 10:32:25;;;;;;;;;;;;;;;31.58;16.31;100928.72;5349708;26;34811;-90
2021/06/03 10:34:54;;;;;;;;;;;;;;;31.91;16.18;100925.44;5368336;26;33247;-89
2021/06/03 10:37:23;;;;;;;;;;;;;;;31.73;16.34;100923.62;5330777;26;32949;-88
2021/06/03 10:39:52;;;;;;;;;;;;;;;32.27;15.94;100920.78;5348777;26;33300;-90
2021/06/03 10:42:20;;;;;;;;;;;;;;;32.60;15.66;100922.75;5349663;26;34301;-93
2021/06/03 10:44:49;;;;;;;;;;;;;;;32.86;15.31;100916.47;5331222;26;32103;-93
2021/06/03 10:47:18;;;;;;;;;;;;;;;32.78;15.44;100912.75;5315417;26;32943;-93
2021/06/03 10:49:49;;;;;;;;;;;;;;;32.41;15.91;100913.09;5343407;26;35251;-93
2021/06/03 10:52:19;;;;;;;;;;;;;;;32.21;16.14;100916.03;5339370;26;33127;-92
2021/06/03 10:54:48;;;;;;;;;;;;;;;32.47;16.09;100915.16;5338449;26;32326;-92
2021/06/03 10:57:21;;;;;;;;;;;;;;;32.58;15.90;100917.53;5334610;26;33182;-94
2021/06/03 10:59:50;;;;;;;;;;;;;;;32.95;15.56;100915.50;5334379;26;32848;-94
2021/06/03 11:02:19;;;;;;;;;;;;;;;31.98;16.42;100902.25;5331730;26;32771;-91
2021/06/03 11:04:46;;;;;;;;;;;;;;;32.66;16.01;100913.19;5349163;26;32200;-91
2021/06/03 11:07:14;;;;;;;;;;;;;;;33.50;15.34;100922.13;5330693;26;32862;-89
2021/06/03 11:09:43;;;;;;;;;;;;;;;32.89;15.88;100916.97;5332057;26;33876;-92
2021/06/03 11:12:16;;;;;;;;;;;;;;;32.24;16.54;100914.87;5337647;26;33109;-91
2021/06/03 11:14:57;;;;;;;;;;;;;;;33.41;15.54;100915.91;5347271;26;32560;-91
2021/06/03 11:17:44;;;;;;;;;;;;;;;33.71;15.19;100920.78;5353191;26;34427;-94
2021/06/03 11:20:12;;;;;;;;;;;;;;;32.91;15.97;100903.34;5383628;26;35227;-93
2021/06/03 11:22:41;;;;;;;;;;;;;;;33.39;15.59;100903.59;5347626;26;33570;-93
2021/06/03 11:25:08;;;;;;;;;;;;;;;32.88;15.95;100900.94;5342255;26;32433;-95
2021/06/03 11:27:40;;;;;;;;;;;;;;;32.60;15.92;100896.66;5338624;26;34382;-90
2021/06/03 11:30:11;;;;;;;;;;;;;;;32.71;15.92;100897.34;5347007;26;34016;-89
2021/06/03 11:32:42;;;;;;;;;;;;;;;33.34;15.31;100893.25;5347640;26;34578;-91
2021/06/03 11:35:11;;;;;;;;;;;;;;;32.39;16.17;100882.75;5353712;26;33335;-88
2021/06/03 11:37:39;;;;;;;;;;;;;;;33.26;15.48;100891.41;5331650;26;33945;-88
2021/06/03 11:40:08;;;;;;;;;;;;;;;33.88;15.02;100890.03;5294443;26;1031953;-92
2021/06/03 11:42:41;;;;;;;;;;;;;;;34.07;14.96;100893.34;5349506;26;33462;-90
2021/06/03 11:45:25;;;;;;;;;;;;;;;33.82;15.18;100890.72;5332370;26;33654;-89
2021/06/03 11:47:55;;;;;;;;;;;;;;;33.32;15.52;100884.50;5349153;26;34005;-89
2021/06/03 11:50:23;;;;;;;;;;;;;;;32.24;16.44;100888.78;5349613;26;33997;-91
2021/06/03 11:55:33;;;;;;;;;;;;;;;33.56;15.56;100882.78;5367101;26;32223;-94
2021/06/03 11:58:11;;;;;;;;;;;;;;;33.55;15.54;100881.94;5330690;26;33043;-93
2021/06/03 12:00:49;;;;;;;;;;;;;;;33.45;15.84;100881.28;5349482;26;34012;-94
2021/06/03 12:03:24;;;;;;;;;;;;;;;33.95;15.19;100884.78;5330450;26;34072;-94
2021/06/03 12:05:55;;;;;;;;;;;;;;;34.50;14.76;100884.91;5387797;26;32780;-90
2021/06/03 12:08:32;;;;;;;;;;;;;;;34.07;15.09;100887.94;5332875;26;32973;-89
2021/06/03 12:11:00;;;;;;;;;;;;;;;33.93;15.31;100878.69;5333167;26;33491;-89
2021/06/03 12:13:28;;;;;;;;;;;;;;;33.06;15.95;100876.53;5351726;26;34136;-90
2021/06/03 12:15:56;;;;;;;;;;;;;;;33.53;15.63;100885.81;5333328;26;31854;-89
2021/06/03 12:18:31;;;;;;;;;;;;;;;33.34;15.66;100876.22;5348921;26;33910;-91
2021/06/03 12:20:59;;;;;;;;;;;;;;;33.42;15.71;100870.81;5348825;26;33080;-90
2021/06/03 12:23:27;;;;;;;;;;;;;;;33.37;15.92;100876.72;5367483;26;33675;-90
2021/06/03 12:25:55;;;;;;;;;;;;;;;33.26;15.92;100869.81;5329594;26;32166;-90
2021/06/03 12:28:24;;;;;;;;;;;;;;;33.50;15.82;100865.41;5330209;26;33560;-90
2021/06/03 12:30:52;;;;;;;;;;;;;;;33.96;15.40;100854.84;5348555;26;33518;-90
2021/06/03 12:33:27;;;;;;;;;;;;;;;34.08;15.43;100852.62;5330588;26;33694;-90
2021/06/03 12:35:56;;;;;;;;;;;;;;;34.26;15.24;100849.69;5333370;26;31449;-91
2021/06/03 12:38:28;;;;;;;;;;;;;;;34.79;14.51;100854.47;5349846;26;33964;-90
2021/06/03 12:40:57;;;;;;;;;;;;;;;34.84;14.24;100856.69;5331444;26;35440;-89
2021/06/03 12:43:31;;;;;;;;;;;;;;;33.93;15.20;100857.91;5330996;26;33149;-90
2021/06/03 12:45:59;;;;;;;;;;;;;;;34.45;14.97;100852.97;5330690;26;32628;-92
2021/06/03 12:48:30;;;;;;;;;;;;;;;34.45;15.31;100853.84;5330924;26;33858;-91
2021/06/03 12:50:59;;;;;;;;;;;;;;;33.89;15.65;100853.87;5330122;26;32729;-91
2021/06/03 12:53:27;;;;;;;;;;;;;;;34.19;15.38;100848.69;5366774;26;32746;-93